Time;durP1;ratioP1;P1;durP2;ratioP2;P2;SDS_P1;SDS_P2;PMS_P1;PMS_P2;Temp;Humidity;BMP_temperature;BMP_pressure;BME280_temperature;BME280_humidity;BME280_pressure;Samples;Min_cycle;Max_cycle;Signal;HPM_P1;HPM_P2
2022/07/07 00:00:47;;;;;;;;;;;24.70;92.00;;;;;;5096912;28;19916;-61
2022/07/07 00:03:13;;;;;;;;;;;24.80;92.00;;;;;;5096494;28;20350;-61
2022/07/07 00:05:39;;;;;;;;;;;24.70;92.00;;;;;;5078296;28;19957;-61
2022/07/07 00:08:05;;;;;;;;;;;24.70;92.00;;;;;;5096424;28;20256;-61
2022/07/07 00:10:30;;;;;;;;;;;24.80;92.00;;;;;;5096658;28;19964;-61
2022/07/07 00:12:56;;;;;;;;;;;24.80;92.00;;;;;;5096247;28;19912;-61
2022/07/07 00:15:21;;;;;;;;;;;24.80;92.00;;;;;;5096232;28;19908;-61
2022/07/07 00:17:47;;;;;;;;;;;24.70;91.90;;;;;;5078718;28;19915;-61
2022/07/07 00:20:12;;;;;;;;;;;24.70;92.00;;;;;;5096631;28;19912;-61
2022/07/07 00:22:38;;;;;;;;;;;24.80;92.00;;;;;;5096129;28;19912;-61
2022/07/07 00:25:04;;;;;;;;;;;24.70;92.00;;;;;;5096460;28;19908;-61
2022/07/07 00:27:29;;;;;;;;;;;24.70;92.20;;;;;;5096093;28;19908;-61
2022/07/07 00:29:55;;;;;;;;;;;24.70;91.90;;;;;;5096286;28;19916;-61
2022/07/07 00:32:20;;;;;;;;;;;24.80;92.00;;;;;;5095829;28;19920;-61
2022/07/07 00:34:46;;;;;;;;;;;24.70;91.90;;;;;;5096224;28;19934;-61
2022/07/07 00:37:11;;;;;;;;;;;24.70;92.00;;;;;;5095834;28;20290;-61
2022/07/07 00:39:37;;;;;;;;;;;24.70;91.90;;;;;;5095710;28;19909;-61
2022/07/07 00:42:02;;;;;;;;;;;24.80;92.00;;;;;;5095401;28;20378;-61
2022/07/07 00:44:28;;;;;;;;;;;24.70;91.90;;;;;;5095605;28;19947;-61
2022/07/07 00:46:54;;;;;;;;;;;24.80;92.00;;;;;;5095539;28;20469;-61
2022/07/07 00:49:20;;;;;;;;;;;24.70;91.90;;;;;;5077655;28;19908;-61
2022/07/07 00:51:45;;;;;;;;;;;24.70;91.90;;;;;;5095781;28;19915;-61
2022/07/07 00:54:11;;;;;;;;;;;24.70;91.90;;;;;;5077631;28;20006;-61
2022/07/07 00:56:37;;;;;;;;;;;24.70;91.90;;;;;;5095368;28;20006;-61
2022/07/07 00:59:06;;;;;;;;;;;24.70;91.90;;;;;;5095282;28;20350;-61
2022/07/07 01:01:32;;;;;;;;;;;24.70;91.90;;;;;;5095188;28;19947;-61
2022/07/07 01:03:58;;;;;;;;;;;24.70;91.90;;;;;;5077560;28;19912;-61
2022/07/07 01:06:24;;;;;;;;;;;24.70;91.90;;;;;;5095226;28;20271;-61
2022/07/07 01:08:51;;;;;;;;;;;24.70;91.90;;;;;;5095609;28;19914;-61
2022/07/07 01:11:17;;;;;;;;;;;24.70;92.10;;;;;;5095574;28;19908;-61
2022/07/07 01:13:42;;;;;;;;;;;24.70;91.90;;;;;;5095480;28;19915;-61
2022/07/07 01:16:08;;;;;;;;;;;24.70;91.90;;;;;;5095160;28;19909;-61
2022/07/07 01:18:33;;;;;;;;;;;24.70;91.90;;;;;;5095331;28;19962;-61
2022/07/07 01:21:00;;;;;;;;;;;24.70;91.90;;;;;;5095230;28;19965;-61
2022/07/07 01:23:25;;;;;;;;;;;24.70;91.90;;;;;;5095260;28;19950;-61
2022/07/07 01:25:51;;;;;;;;;;;24.70;91.90;;;;;;5095295;28;19912;-61
2022/07/07 01:28:17;;;;;;;;;;;24.70;91.90;;;;;;5094865;28;19908;-61
2022/07/07 01:30:42;;;;;;;;;;;24.70;91.90;;;;;;5077010;28;19999;-61
2022/07/07 01:33:07;;;;;;;;;;;24.70;91.90;;;;;;5095174;28;19912;-61
2022/07/07 01:35:33;;;;;;;;;;;24.70;91.90;;;;;;5095114;28;19920;-61
2022/07/07 01:37:58;;;;;;;;;;;24.70;91.90;;;;;;5095071;28;19939;-61
2022/07/07 01:40:24;;;;;;;;;;;24.70;91.90;;;;;;5094552;28;19912;-61
2022/07/07 01:42:49;;;;;;;;;;;24.70;91.90;;;;;;5094719;28;20011;-61
2022/07/07 01:45:15;;;;;;;;;;;24.70;91.90;;;;;;5094592;28;19908;-61
2022/07/07 01:47:40;;;;;;;;;;;24.70;91.90;;;;;;5094802;28;19919;-61
2022/07/07 01:50:06;;;;;;;;;;;24.70;91.90;;;;;;5076625;28;19955;-61
2022/07/07 01:52:32;;;;;;;;;;;24.70;91.90;;;;;;5094292;28;19948;-61
2022/07/07 01:54:57;;;;;;;;;;;24.70;91.90;;;;;;5094118;28;19908;-61
2022/07/07 01:57:22;;;;;;;;;;;24.70;91.90;;;;;;5094300;28;19920;-61
2022/07/07 01:59:48;;;;;;;;;;;24.70;91.90;;;;;;5094379;28;19912;-61
2022/07/07 02:02:13;;;;;;;;;;;24.70;91.90;;;;;;5094613;28;19912;-61
2022/07/07 02:04:39;;;;;;;;;;;24.70;91.90;;;;;;5094208;28;20038;-61
2022/07/07 02:07:04;;;;;;;;;;;24.70;91.90;;;;;;5076334;28;19908;-61
2022/07/07 02:09:30;;;;;;;;;;;24.70;91.90;;;;;;5094243;28;19919;-61
2022/07/07 02:11:55;;;;;;;;;;;24.70;91.90;;;;;;5094535;28;20298;-61
2022/07/07 02:14:21;;;;;;;;;;;24.70;91.90;;;;;;5076486;28;19912;-61
2022/07/07 02:16:47;;;;;;;;;;;24.70;91.90;;;;;;5094115;28;19914;-61
2022/07/07 02:19:12;;;;;;;;;;;24.70;91.90;;;;;;5094076;28;20425;-61
2022/07/07 02:21:38;;;;;;;;;;;24.70;91.90;;;;;;5094262;28;19912;-61
2022/07/07 02:24:04;;;;;;;;;;;24.70;91.90;;;;;;5094338;28;19916;-61
2022/07/07 02:26:31;;;;;;;;;;;24.70;92.10;;;;;;5094662;28;19908;-61
2022/07/07 02:28:57;;;;;;;;;;;24.70;91.90;;;;;;5094262;28;19908;-61
2022/07/07 02:31:23;;;;;;;;;;;24.70;91.90;;;;;;5094317;28;19961;-61
2022/07/07 02:33:48;;;;;;;;;;;24.60;91.90;;;;;;5094208;28;20385;-61
2022/07/07 02:36:14;;;;;;;;;;;24.70;91.90;;;;;;5094178;28;19908;-61
2022/07/07 02:38:40;;;;;;;;;;;24.70;91.90;;;;;;5076152;28;19908;-61
2022/07/07 02:41:06;;;;;;;;;;;24.70;91.90;;;;;;5094101;28;20239;-61
2022/07/07 02:43:31;;;;;;;;;;;24.60;91.90;;;;;;5093929;28;19916;-61
2022/07/07 02:45:57;;;;;;;;;;;24.60;91.90;;;;;;5075973;28;20335;-61
2022/07/07 02:48:23;;;;;;;;;;;24.70;91.90;;;;;;5094374;28;19916;-61
2022/07/07 02:50:49;;;;;;;;;;;24.70;91.90;;;;;;5094341;28;19908;-61
2022/07/07 02:53:15;;;;;;;;;;;24.60;91.90;;;;;;5094318;28;19965;-61
2022/07/07 02:55:41;;;;;;;;;;;24.70;91.90;;;;;;5093973;28;19970;-61
2022/07/07 02:58:07;;;;;;;;;;;24.60;91.90;;;;;;5093887;28;20350;-61
2022/07/07 03:00:33;;;;;;;;;;;24.60;91.90;;;;;;5093824;28;19919;-61
2022/07/07 03:03:00;;;;;;;;;;;24.60;91.90;;;;;;5094332;28;19965;-61
2022/07/07 03:05:25;;;;;;;;;;;24.70;91.90;;;;;;5096116;28;19914;-62
2022/07/07 03:07:51;;;;;;;;;;;24.60;91.90;;;;;;5098141;28;20003;-61
2022/07/07 03:10:16;;;;;;;;;;;24.60;91.80;;;;;;5079476;28;19995;-61
2022/07/07 03:12:42;;;;;;;;;;;24.70;91.80;;;;;;5097434;28;19908;-61
2022/07/07 03:15:07;;;;;;;;;;;24.60;91.80;;;;;;5097598;28;19908;-61
2022/07/07 03:17:33;;;;;;;;;;;24.60;91.80;;;;;;5097255;28;19915;-61
2022/07/07 03:19:59;;;;;;;;;;;24.60;91.80;;;;;;5079450;28;19912;-61
2022/07/07 03:22:24;;;;;;;;;;;24.60;91.80;;;;;;5097588;28;19912;-61
2022/07/07 03:24:50;;;;;;;;;;;24.60;91.80;;;;;;5097789;28;19965;-61
2022/07/07 03:27:15;;;;;;;;;;;24.60;91.80;;;;;;5079271;28;20003;-61
2022/07/07 03:29:41;;;;;;;;;;;24.60;91.80;;;;;;5097065;28;20003;-61
2022/07/07 03:32:07;;;;;;;;;;;24.60;91.80;;;;;;5097049;28;19931;-61
2022/07/07 03:34:33;;;;;;;;;;;24.60;91.70;;;;;;5097094;28;20347;-61
2022/07/07 03:36:58;;;;;;;;;;;24.60;91.70;;;;;;5096916;28;20278;-61
2022/07/07 03:39:23;;;;;;;;;;;24.60;91.70;;;;;;5097015;28;19908;-61
2022/07/07 03:41:49;;;;;;;;;;;24.60;91.70;;;;;;5096859;28;19955;-61
2022/07/07 03:44:14;;;;;;;;;;;24.60;91.70;;;;;;5096934;28;19912;-61
2022/07/07 03:46:40;;;;;;;;;;;24.60;91.70;;;;;;5078894;28;19954;-61
2022/07/07 03:49:05;;;;;;;;;;;24.60;91.70;;;;;;5097052;28;20338;-61
2022/07/07 03:51:31;;;;;;;;;;;24.60;91.70;;;;;;5096668;28;19908;-61
2022/07/07 03:53:57;;;;;;;;;;;24.60;91.70;;;;;;5096653;28;20006;-61
2022/07/07 03:56:22;;;;;;;;;;;24.60;91.70;;;;;;5096856;28;20347;-61
2022/07/07 03:58:48;;;;;;;;;;;24.60;91.70;;;;;;5096771;28;19920;-61
2022/07/07 04:01:13;;;;;;;;;;;24.60;91.70;;;;;;5096679;28;20014;-61
2022/07/07 04:03:39;;;;;;;;;;;24.60;91.70;;;;;;5096837;28;19912;-61
2022/07/07 04:06:04;;;;;;;;;;;24.60;91.70;;;;;;5096346;28;19908;-61
2022/07/07 04:08:30;;;;;;;;;;;24.60;91.70;;;;;;5096329;28;20284;-61
2022/07/07 04:10:55;;;;;;;;;;;24.60;91.70;;;;;;5096665;28;19908;-61
2022/07/07 04:13:21;;;;;;;;;;;24.60;91.70;;;;;;5096264;28;19908;-61
2022/07/07 04:15:46;;;;;;;;;;;24.60;91.70;;;;;;5096004;28;19908;-61
2022/07/07 04:18:12;;;;;;;;;;;24.60;91.70;;;;;;5095894;28;20351;-61
2022/07/07 04:20:37;;;;;;;;;;;24.60;91.70;;;;;;5096145;28;19912;-61
2022/07/07 04:23:03;;;;;;;;;;;24.60;91.70;;;;;;5096599;28;19912;-61
2022/07/07 04:25:28;;;;;;;;;;;24.60;91.60;;;;;;5095996;28;19908;-61
2022/07/07 04:27:54;;;;;;;;;;;24.60;91.60;;;;;;5096010;28;20374;-61
2022/07/07 04:30:19;;;;;;;;;;;24.60;91.60;;;;;;5096215;28;19914;-61
2022/07/07 04:32:45;;;;;;;;;;;24.60;91.60;;;;;;5096139;28;20351;-61
2022/07/07 04:35:10;;;;;;;;;;;24.60;91.60;;;;;;5095735;28;19919;-61
2022/07/07 04:37:36;;;;;;;;;;;24.60;91.60;;;;;;5095849;28;19999;-60
2022/07/07 04:40:03;;;;;;;;;;;24.60;91.60;;;;;;5095900;28;20341;-60
2022/07/07 04:42:28;;;;;;;;;;;24.60;91.60;;;;;;5095510;28;19912;-60
2022/07/07 04:44:54;;;;;;;;;;;24.60;91.60;;;;;;5077504;28;20372;-61
2022/07/07 04:47:19;;;;;;;;;;;24.60;91.60;;;;;;5095875;28;19912;-61
2022/07/07 04:49:45;;;;;;;;;;;24.60;91.60;;;;;;5095490;28;19916;-61
2022/07/07 04:52:10;;;;;;;;;;;24.60;91.50;;;;;;5077153;28;20370;-61
2022/07/07 04:54:36;;;;;;;;;;;24.60;91.50;;;;;;5095634;28;19908;-60
2022/07/07 04:57:01;;;;;;;;;;;24.60;91.50;;;;;;5095016;28;19909;-61
2022/07/07 04:59:27;;;;;;;;;;;24.60;91.50;;;;;;5095182;28;20045;-60
2022/07/07 05:01:52;;;;;;;;;;;24.60;91.50;;;;;;5095048;28;19920;-60
2022/07/07 05:04:18;;;;;;;;;;;24.60;91.50;;;;;;5095481;28;20376;-60
2022/07/07 05:06:43;;;;;;;;;;;24.50;91.50;;;;;;5095087;28;20325;-60
2022/07/07 05:09:09;;;;;;;;;;;24.60;91.50;;;;;;5095413;28;19949;-61
2022/07/07 05:11:35;;;;;;;;;;;24.50;91.50;;;;;;5095084;28;20354;-61
2022/07/07 05:14:01;;;;;;;;;;;24.60;91.50;;;;;;5077061;28;19912;-61
2022/07/07 05:16:27;;;;;;;;;;;24.60;91.50;;;;;;5095117;28;19920;-61
2022/07/07 05:18:52;;;;;;;;;;;24.60;91.50;;;;;;5094639;28;20255;-61
2022/07/07 05:21:18;;;;;;;;;;;24.60;91.60;;;;;;5094580;28;20354;-61
2022/07/07 05:23:43;;;;;;;;;;;24.60;91.50;;;;;;5095133;28;19912;-61
2022/07/07 05:26:08;;;;;;;;;;;24.50;91.50;;;;;;5094772;28;19908;-60
2022/07/07 05:28:36;;;;;;;;;;;24.60;91.50;;;;;;5094407;28;20370;-60
2022/07/07 05:31:02;;;;;;;;;;;24.60;91.60;;;;;;5094671;28;19912;-61
2022/07/07 05:33:28;;;;;;;;;;;24.60;91.50;;;;;;5094484;28;19908;-61
2022/07/07 05:35:53;;;;;;;;;;;24.50;91.60;;;;;;5094373;28;20239;-61
2022/07/07 05:38:19;;;;;;;;;;;24.50;91.50;;;;;;5094392;28;19908;-61
2022/07/07 05:40:44;;;;;;;;;;;24.60;91.60;;;;;;5094579;28;19912;-60
2022/07/07 05:43:10;;;;;;;;;;;24.60;91.60;;;;;;5076506;28;20255;-60
2022/07/07 05:45:35;;;;;;;;;;;24.60;91.60;;;;;;5094625;28;19908;-60
2022/07/07 05:48:01;;;;;;;;;;;24.50;91.50;;;;;;5094391;28;19919;-60
2022/07/07 05:50:26;;;;;;;;;;;24.60;91.60;;;;;;5094010;28;20354;-60
2022/07/07 05:52:51;;;;;;;;;;;24.60;91.60;;;;;;5094208;28;19916;-60
2022/07/07 05:55:17;;;;;;;;;;;24.50;91.60;;;;;;5093587;28;20419;-61
2022/07/07 05:57:42;;;;;;;;;;;24.50;91.60;;;;;;5093901;28;19959;-60
2022/07/07 06:00:08;;;;;;;;;;;24.50;91.60;;;;;;5094352;28;20379;-62
2022/07/07 06:02:34;;;;;;;;;;;24.50;91.50;;;;;;5094104;28;19916;-61
2022/07/07 06:04:59;;;;;;;;;;;24.50;91.50;;;;;;5094026;28;20343;-61
2022/07/07 06:07:25;;;;;;;;;;;24.60;91.60;;;;;;5094300;28;19930;-61
2022/07/07 06:09:50;;;;;;;;;;;24.50;91.50;;;;;;5094037;28;20380;-61
2022/07/07 06:12:16;;;;;;;;;;;24.50;91.50;;;;;;5093628;28;19954;-61
2022/07/07 06:14:41;;;;;;;;;;;24.50;91.50;;;;;;5093898;28;19908;-62
2022/07/07 06:17:07;;;;;;;;;;;24.60;91.60;;;;;;5093956;28;20013;-62
2022/07/07 06:19:32;;;;;;;;;;;24.50;91.60;;;;;;5093879;28;19908;-61
2022/07/07 06:21:58;;;;;;;;;;;24.50;91.60;;;;;;5093636;28;20054;-61
2022/07/07 06:24:23;;;;;;;;;;;24.50;91.60;;;;;;5093524;28;19908;-61
2022/07/07 06:26:49;;;;;;;;;;;24.50;91.60;;;;;;5094064;28;19998;-61
2022/07/07 06:29:14;;;;;;;;;;;24.50;91.60;;;;;;5093474;28;19991;-61
2022/07/07 06:31:39;;;;;;;;;;;24.50;91.60;;;;;;5094010;28;20271;-61
2022/07/07 06:34:05;;;;;;;;;;;24.50;91.60;;;;;;5093396;28;19908;-61
2022/07/07 06:36:31;;;;;;;;;;;24.50;91.60;;;;;;5093497;28;20345;-61
2022/07/07 06:38:56;;;;;;;;;;;24.50;91.60;;;;;;5075762;28;19908;-61
2022/07/07 06:41:23;;;;;;;;;;;24.50;91.60;;;;;;5079333;28;20357;-61
2022/07/07 06:43:49;;;;;;;;;;;24.50;91.60;;;;;;5079783;28;19912;-61
2022/07/07 06:46:14;;;;;;;;;;;24.50;91.60;;;;;;5097635;28;19961;-61
2022/07/07 06:48:40;;;;;;;;;;;24.50;91.60;;;;;;5079857;28;19908;-61
2022/07/07 06:51:05;;;;;;;;;;;24.50;91.60;;;;;;5097926;28;19912;-60
2022/07/07 06:53:31;;;;;;;;;;;24.50;91.60;;;;;;5097764;28;19934;-60
2022/07/07 06:55:56;;;;;;;;;;;24.50;91.60;;;;;;5097391;28;20372;-60
2022/07/07 06:58:21;;;;;;;;;;;24.50;91.60;;;;;;5097180;28;19920;-60
2022/07/07 07:00:47;;;;;;;;;;;24.50;91.60;;;;;;5097129;28;20378;-61
2022/07/07 07:03:12;;;;;;;;;;;24.50;91.60;;;;;;5097617;28;19912;-61
2022/07/07 07:05:38;;;;;;;;;;;24.50;91.60;;;;;;5097432;28;19952;-61
2022/07/07 07:08:04;;;;;;;;;;;24.50;91.60;;;;;;5097564;28;19961;-61
2022/07/07 07:10:29;;;;;;;;;;;24.50;91.60;;;;;;5079228;28;19915;-61
2022/07/07 07:12:54;;;;;;;;;;;24.50;91.60;;;;;;5097740;28;19908;-61
2022/07/07 07:15:20;;;;;;;;;;;24.50;91.60;;;;;;5096961;28;19916;-61
2022/07/07 07:17:45;;;;;;;;;;;24.50;91.50;;;;;;5097314;28;19915;-61
2022/07/07 07:20:12;;;;;;;;;;;24.50;91.50;;;;;;5096793;28;19912;-60
2022/07/07 07:22:40;;;;;;;;;;;24.50;91.50;;;;;;5097056;28;20418;-60
2022/07/07 07:25:06;;;;;;;;;;;24.50;91.50;;;;;;5096955;28;19954;-60
2022/07/07 07:27:32;;;;;;;;;;;24.50;91.50;;;;;;5096826;28;19931;-60
2022/07/07 07:29:58;;;;;;;;;;;24.50;91.50;;;;;;5097240;28;20346;-60
2022/07/07 07:32:23;;;;;;;;;;;24.50;91.50;;;;;;5097043;28;19916;-60
2022/07/07 07:34:49;;;;;;;;;;;24.50;91.50;;;;;;5096868;28;20413;-60
2022/07/07 07:37:14;;;;;;;;;;;24.50;91.50;;;;;;5096648;28;19908;-61
2022/07/07 07:39:40;;;;;;;;;;;24.50;91.50;;;;;;5097136;28;19957;-61
2022/07/07 07:42:05;;;;;;;;;;;24.50;91.50;;;;;;5078651;28;19916;-60
2022/07/07 07:47:15;;;;;;;;;;;24.50;91.50;;;;;;5096740;28;19915;-61
2022/07/07 07:49:40;;;;;;;;;;;24.50;91.50;;;;;;5096569;28;19912;-61
2022/07/07 07:52:06;;;;;;;;;;;24.50;91.50;;;;;;5096682;28;19943;-61
2022/07/07 07:54:31;;;;;;;;;;;24.50;91.50;;;;;;5078466;28;19931;-61
2022/07/07 07:56:57;;;;;;;;;;;24.50;91.50;;;;;;5096695;28;19954;-61
2022/07/07 07:59:22;;;;;;;;;;;24.50;91.50;;;;;;5096769;28;19920;-61
2022/07/07 08:01:48;;;;;;;;;;;24.50;91.50;;;;;;5096351;28;19929;-61
2022/07/07 08:04:13;;;;;;;;;;;24.60;91.50;;;;;;5096203;28;19919;-62
2022/07/07 08:06:39;;;;;;;;;;;24.60;91.50;;;;;;5078321;28;19952;-61
2022/07/07 08:09:04;;;;;;;;;;;24.60;91.50;;;;;;5096178;28;19943;-61
2022/07/07 08:11:30;;;;;;;;;;;24.60;91.40;;;;;;5096041;28;19918;-61
2022/07/07 08:13:55;;;;;;;;;;;24.60;91.40;;;;;;5096414;28;19908;-61
2022/07/07 08:16:21;;;;;;;;;;;24.50;91.30;;;;;;5096294;28;20046;-61
2022/07/07 08:18:46;;;;;;;;;;;24.50;91.30;;;;;;5078033;28;19915;-62
2022/07/07 08:21:12;;;;;;;;;;;24.50;91.30;;;;;;5095895;28;20011;-61
2022/07/07 08:23:37;;;;;;;;;;;24.50;91.30;;;;;;5096192;28;20355;-62
2022/07/07 08:26:03;;;;;;;;;;;24.60;91.40;;;;;;5096042;28;19999;-61
2022/07/07 08:28:28;;;;;;;;;;;24.60;91.40;;;;;;5078030;28;19916;-61
2022/07/07 08:30:54;;;;;;;;;;;24.50;91.30;;;;;;5095965;28;19915;-61
2022/07/07 08:33:19;;;;;;;;;;;24.60;91.40;;;;;;5096110;28;19912;-61
2022/07/07 08:35:45;;;;;;;;;;;24.50;91.40;;;;;;5095618;28;19915;-61
2022/07/07 08:38:10;;;;;;;;;;;24.50;91.30;;;;;;5096039;28;19913;-61
2022/07/07 08:40:36;;;;;;;;;;;24.50;91.20;;;;;;5095397;28;19953;-61
2022/07/07 08:43:01;;;;;;;;;;;24.60;91.30;;;;;;5095831;28;19919;-61
2022/07/07 08:45:27;;;;;;;;;;;24.60;91.30;;;;;;5095801;28;19916;-61
2022/07/07 08:47:53;;;;;;;;;;;24.60;91.40;;;;;;5096070;28;19908;-61
2022/07/07 08:50:19;;;;;;;;;;;24.60;91.40;;;;;;5095668;28;20255;-61
2022/07/07 08:52:45;;;;;;;;;;;24.50;91.30;;;;;;5095215;28;19954;-61
2022/07/07 08:55:12;;;;;;;;;;;24.60;91.60;;;;;;5095506;28;19912;-61
2022/07/07 08:57:38;;;;;;;;;;;24.50;91.30;;;;;;5095162;28;19920;-61
2022/07/07 09:00:04;;;;;;;;;;;24.60;91.30;;;;;;5077433;28;20362;-61
2022/07/07 09:02:29;;;;;;;;;;;24.50;91.30;;;;;;5094888;28;19919;-61
2022/07/07 09:04:54;;;;;;;;;;;24.60;91.30;;;;;;5095201;28;20354;-61
2022/07/07 09:07:20;;;;;;;;;;;24.60;91.40;;;;;;5095269;28;19912;-61
2022/07/07 09:09:48;;;;;;;;;;;24.60;91.30;;;;;;5095209;28;19908;-61
2022/07/07 09:12:14;;;;;;;;;;;24.60;91.30;;;;;;5095509;28;19915;-62
2022/07/07 09:14:43;;;;;;;;;;;24.60;91.30;;;;;;5077204;28;19908;-61
2022/07/07 09:17:27;;;;;;;;;;;24.60;91.30;;;;;;5094979;28;20381;-61
2022/07/07 09:19:59;;;;;;;;;;;24.50;91.30;;;;;;5094991;28;20354;-61
2022/07/07 09:22:45;;;;;;;;;;;24.50;91.30;;;;;;5094938;28;19912;-61
2022/07/07 09:25:10;;;;;;;;;;;24.50;91.20;;;;;;5094069;28;19908;-61
2022/07/07 09:27:48;;;;;;;;;;;24.50;91.30;;;;;;5095324;28;20243;-61
2022/07/07 09:30:14;;;;;;;;;;;24.60;91.30;;;;;;5094947;28;19912;-61
2022/07/07 09:32:46;;;;;;;;;;;24.60;91.30;;;;;;5076458;28;20003;-61
2022/07/07 09:38:15;;;;;;;;;;;24.60;91.30;;;;;;5094518;28;19915;-60
2022/07/07 09:40:49;;;;;;;;;;;24.50;91.30;;;;;;5094251;28;20395;-61
2022/07/07 09:43:15;;;;;;;;;;;24.50;91.30;;;;;;5094515;28;19912;-61
2022/07/07 09:45:40;;;;;;;;;;;24.50;91.30;;;;;;5094307;28;20334;-61
2022/07/07 09:48:08;;;;;;;;;;;24.60;91.30;;;;;;5094201;28;19915;-61
2022/07/07 09:50:34;;;;;;;;;;;24.60;91.30;;;;;;5094450;28;19912;-60
2022/07/07 09:53:05;;;;;;;;;;;24.50;91.30;;;;;;5094682;28;20004;-61
2022/07/07 09:55:31;;;;;;;;;;;24.50;91.30;;;;;;5094341;28;19954;-61
2022/07/07 09:57:56;;;;;;;;;;;24.60;91.30;;;;;;5094031;28;19971;-61
2022/07/07 10:00:21;;;;;;;;;;;24.60;91.50;;;;;;5093709;28;20397;-61
2022/07/07 10:02:49;;;;;;;;;;;24.50;91.30;;;;;;5094254;28;19935;-61
2022/07/07 10:05:16;;;;;;;;;;;24.50;91.30;;;;;;5094071;28;19908;-61
2022/07/07 10:07:42;;;;;;;;;;;24.50;91.20;;;;;;5094138;28;19908;-60
2022/07/07 10:10:09;;;;;;;;;;;24.60;91.30;;;;;;5093885;28;19918;-60
2022/07/07 10:12:39;;;;;;;;;;;24.60;91.30;;;;;;5094088;28;19915;-61
2022/07/07 10:15:11;;;;;;;;;;;24.50;91.30;;;;;;5093650;28;19908;-61
2022/07/07 10:17:37;;;;;;;;;;;24.50;91.30;;;;;;5094077;28;19909;-60
2022/07/07 10:20:03;;;;;;;;;;;24.50;91.30;;;;;;5093821;28;19945;-60
2022/07/07 10:22:28;;;;;;;;;;;24.50;91.30;;;;;;5093858;28;19928;-60
2022/07/07 10:24:58;;;;;;;;;;;24.60;91.30;;;;;;5094185;28;20049;-61
2022/07/07 10:27:25;;;;;;;;;;;24.50;91.30;;;;;;5093878;28;20214;-61
2022/07/07 10:29:52;;;;;;;;;;;24.60;91.40;;;;;;5093846;28;20402;-61
2022/07/07 10:32:18;;;;;;;;;;;24.50;91.30;;;;;;5093588;28;20020;-61
2022/07/07 10:34:52;;;;;;;;;;;24.60;91.40;;;;;;5093714;28;19908;-60
2022/07/07 10:37:18;;;;;;;;;;;24.50;91.30;;;;;;5093834;28;19958;-61
2022/07/07 10:39:45;;;;;;;;;;;24.50;91.60;;;;;;5093167;28;19937;-60
2022/07/07 10:42:16;;;;;;;;;;;24.50;91.40;;;;;;5094152;28;20290;-61
2022/07/07 10:44:42;;;;;;;;;;;24.50;91.40;;;;;;5093941;28;19999;-62
2022/07/07 10:47:11;;;;;;;;;;;24.50;91.40;;;;;;5093773;28;19908;-61
2022/07/07 10:49:40;;;;;;;;;;;24.50;91.40;;;;;;5094260;28;19912;-61
2022/07/07 10:52:25;;;;;;;;;;;24.50;91.40;;;;;;5093935;28;19948;-60
2022/07/07 10:54:59;;;;;;;;;;;24.50;91.30;;;;;;5093247;28;19961;-61
2022/07/07 10:57:29;;;;;;;;;;;24.50;91.30;;;;;;5093323;28;19966;-60
2022/07/07 11:00:08;;;;;;;;;;;24.50;91.40;;;;;;5093506;28;19924;-60
2022/07/07 11:02:42;;;;;;;;;;;24.60;91.30;;;;;;5093773;28;19920;-60
2022/07/07 11:05:13;;;;;;;;;;;24.60;91.40;;;;;;5093840;28;19943;-60
2022/07/07 11:07:40;;;;;;;;;;;24.60;91.30;;;;;;5093280;28;19914;-60
2022/07/07 11:10:10;;;;;;;;;;;24.50;91.20;;;;;;5093055;28;19908;-61
2022/07/07 11:12:38;;;;;;;;;;;24.60;91.20;;;;;;5093128;28;19909;-61
2022/07/07 11:15:22;;;;;;;;;;;24.50;91.20;;;;;;5093809;28;19908;-61
2022/07/07 11:17:49;;;;;;;;;;;24.60;91.20;;;;;;5093647;28;19909;-60
2022/07/07 11:20:16;;;;;;;;;;;24.60;91.20;;;;;;5093581;28;19912;-60
2022/07/07 11:22:45;;;;;;;;;;;24.60;91.20;;;;;;5093583;28;20235;-60
2022/07/07 11:25:12;;;;;;;;;;;24.60;91.20;;;;;;5093014;28;19916;-60
2022/07/07 11:27:37;;;;;;;;;;;24.50;91.20;;;;;;5096526;28;19908;-59
2022/07/07 11:30:06;;;;;;;;;;;24.50;91.20;;;;;;5097272;28;19908;-60
2022/07/07 11:32:36;;;;;;;;;;;24.50;91.20;;;;;;5097528;28;19916;-60
2022/07/07 11:35:05;;;;;;;;;;;24.50;91.10;;;;;;5096671;28;19937;-59
2022/07/07 11:37:31;;;;;;;;;;;24.50;91.10;;;;;;5096884;28;19908;-60
2022/07/07 11:39:57;;;;;;;;;;;24.50;91.10;;;;;;5078500;28;19916;-59
2022/07/07 11:42:22;;;;;;;;;;;24.60;91.20;;;;;;5096786;28;20305;-60
2022/07/07 11:44:48;;;;;;;;;;;24.60;91.10;;;;;;5096929;28;19931;-60
2022/07/07 11:47:14;;;;;;;;;;;24.60;91.10;;;;;;5096681;28;19908;-59
2022/07/07 11:49:40;;;;;;;;;;;24.50;91.10;;;;;;5096685;28;19961;-60
2022/07/07 11:52:10;;;;;;;;;;;24.50;91.10;;;;;;5078601;28;19908;-60
2022/07/07 11:54:42;;;;;;;;;;;24.50;91.10;;;;;;5096649;28;19908;-60
2022/07/07 11:57:08;;;;;;;;;;;24.50;91.10;;;;;;5096435;28;19955;-60
2022/07/07 11:59:33;;;;;;;;;;;24.60;91.10;;;;;;5096339;28;19963;-60
2022/07/07 12:01:58;;;;;;;;;;;24.50;91.10;;;;;;5096033;28;19916;-60
2022/07/07 12:04:24;;;;;;;;;;;24.60;91.10;;;;;;5096566;28;20434;-60
2022/07/07 12:06:51;;;;;;;;;;;24.50;91.10;;;;;;5096535;28;19909;-60
2022/07/07 12:09:16;;;;;;;;;;;24.50;91.20;;;;;;5095915;28;20068;-60
2022/07/07 12:11:42;;;;;;;;;;;24.60;91.20;;;;;;5096447;28;19955;-60
2022/07/07 12:14:08;;;;;;;;;;;24.60;91.20;;;;;;5096503;28;19958;-60
2022/07/07 12:16:49;;;;;;;;;;;24.50;91.20;;;;;;5096022;28;20381;-60
2022/07/07 12:19:14;;;;;;;;;;;24.50;91.20;;;;;;5095696;28;19908;-59
2022/07/07 12:21:44;;;;;;;;;;;24.50;91.20;;;;;;5078042;28;19919;-60
2022/07/07 12:24:11;;;;;;;;;;;24.50;91.20;;;;;;5096058;28;20029;-60
2022/07/07 12:26:48;;;;;;;;;;;24.50;91.20;;;;;;5095993;28;19908;-60
2022/07/07 12:29:14;;;;;;;;;;;24.60;91.30;;;;;;5095976;28;19908;-60
2022/07/07 12:31:40;;;;;;;;;;;24.60;91.20;;;;;;5095766;28;19988;-59
2022/07/07 12:34:13;;;;;;;;;;;24.60;91.30;;;;;;5095890;28;20380;-60
2022/07/07 12:36:40;;;;;;;;;;;24.50;91.20;;;;;;5095619;28;19909;-60
2022/07/07 12:39:06;;;;;;;;;;;24.50;91.20;;;;;;5095229;28;20325;-59
2022/07/07 12:41:32;;;;;;;;;;;24.50;91.20;;;;;;5095636;28;19966;-59
2022/07/07 12:44:15;;;;;;;;;;;24.50;91.30;;;;;;5095649;28;20350;-59
2022/07/07 12:46:40;;;;;;;;;;;24.50;91.20;;;;;;5095621;28;19963;-60
2022/07/07 12:49:06;;;;;;;;;;;24.60;91.30;;;;;;5095314;28;20375;-59
2022/07/07 12:51:32;;;;;;;;;;;24.50;91.20;;;;;;5095870;28;20312;-59
2022/07/07 12:53:58;;;;;;;;;;;24.50;91.20;;;;;;5095175;28;20428;-59
2022/07/07 12:56:34;;;;;;;;;;;24.50;91.20;;;;;;5095322;28;20349;-59
2022/07/07 12:59:00;;;;;;;;;;;24.60;91.20;;;;;;5095330;28;19954;-59
2022/07/07 13:01:26;;;;;;;;;;;24.50;91.20;;;;;;5095187;28;19937;-60
2022/07/07 13:03:52;;;;;;;;;;;24.50;91.20;;;;;;5095375;28;20381;-60
2022/07/07 13:06:19;;;;;;;;;;;24.60;91.20;;;;;;5094881;28;20006;-61
2022/07/07 13:08:45;;;;;;;;;;;24.50;91.20;;;;;;5094920;28;19915;-60
2022/07/07 13:11:11;;;;;;;;;;;24.60;91.20;;;;;;5094849;28;19912;-60
2022/07/07 13:13:37;;;;;;;;;;;24.50;91.20;;;;;;5094879;28;20290;-60
2022/07/07 13:16:03;;;;;;;;;;;24.50;91.20;;;;;;5095202;28;19908;-60
2022/07/07 13:18:28;;;;;;;;;;;24.50;91.20;;;;;;5076945;28;19931;-59
2022/07/07 13:20:58;;;;;;;;;;;24.50;91.20;;;;;;5076743;28;19962;-61
2022/07/07 13:23:23;;;;;;;;;;;24.50;91.20;;;;;;5094684;28;19935;-60
2022/07/07 13:25:49;;;;;;;;;;;24.50;91.20;;;;;;5094146;28;20354;-60
2022/07/07 13:28:15;;;;;;;;;;;24.60;91.20;;;;;;5094831;28;19933;-61
2022/07/07 13:30:40;;;;;;;;;;;24.60;91.20;;;;;;5094673;28;19977;-58
2022/07/07 13:33:06;;;;;;;;;;;24.50;91.40;;;;;;5094651;28;19926;-60
2022/07/07 13:35:31;;;;;;;;;;;24.50;91.20;;;;;;5094364;28;19908;-61
2022/07/07 13:37:57;;;;;;;;;;;24.50;91.20;;;;;;5094858;28;20476;-60
2022/07/07 13:40:22;;;;;;;;;;;24.50;91.20;;;;;;5094329;28;19967;-61
2022/07/07 13:42:48;;;;;;;;;;;24.50;91.20;;;;;;5094538;28;20302;-60
2022/07/07 13:45:13;;;;;;;;;;;24.60;91.30;;;;;;5094510;28;19908;-60
2022/07/07 13:47:39;;;;;;;;;;;24.50;91.20;;;;;;5076351;28;19915;-60
2022/07/07 13:50:05;;;;;;;;;;;24.50;91.20;;;;;;5093929;28;19907;-60
2022/07/07 13:52:30;;;;;;;;;;;24.50;91.30;;;;;;5094420;28;19922;-60
2022/07/07 13:54:56;;;;;;;;;;;24.50;91.30;;;;;;5094621;28;19908;-61
2022/07/07 13:57:21;;;;;;;;;;;24.50;91.30;;;;;;5094085;28;19908;-60
2022/07/07 13:59:49;;;;;;;;;;;24.50;91.30;;;;;;5094178;28;19947;-61
2022/07/07 14:02:15;;;;;;;;;;;24.50;91.30;;;;;;5094087;28;19916;-60
2022/07/07 14:04:40;;;;;;;;;;;24.50;91.30;;;;;;5094161;28;19912;-61
2022/07/07 14:07:06;;;;;;;;;;;24.50;91.30;;;;;;5093874;28;19954;-61
2022/07/07 14:09:31;;;;;;;;;;;24.50;91.30;;;;;;5093723;28;19908;-60
2022/07/07 14:11:58;;;;;;;;;;;24.40;91.30;;;;;;5075867;28;19915;-61
2022/07/07 14:14:23;;;;;;;;;;;24.50;91.30;;;;;;5093321;28;19908;-60
2022/07/07 14:16:49;;;;;;;;;;;24.50;91.40;;;;;;5093797;28;20004;-61